Redhaw, Ohio
Current Conditions -  °F | °C
As of 7:56 PM on Friday 24 Oct 2014 (Local Time) from KBJJ Reporting Station
Overcast Overcast  
Wind Chill: 57°   Ceiling: 4200
Heat Index: 57°   Visibility: 8mi
Dew Point: 43°   Wind: 0mph
Humidity: 59%   Direction: NA
Pressure: 30.02"   Gusts: NA
Location:  40.9196°N, 82.2006°W
Report Text: KBJJ 242356Z AUTO 00000KT 8SM OVC042 14/06 A3002 RMK AO2 SLP170 T01390061 10178 20139 53004 TSNO
Loading
Personal Weather Stations






























Interactive Weather Map
Tropical Storm Tracking
New forecast layout! Learn more

10-Day Weather Forecast

Advertisements
Track Severe Weather on mobile